Time;durP1;ratioP1;P1;durP2;ratioP2;P2;SDS_P1;SDS_P2;PMS_P1;PMS_P2;Temp;Humidity;BMP_temperature;BMP_pressure;BME280_temperature;BME280_humidity;BME280_pressure;Samples;Min_cycle;Max_cycle;Signal;HPM_P1;HPM_P2
2022/03/27 00:00:03;;;;;;;1.08;1.00;;;;;;;2.24;74.66;98176.44;5059414;28;20064;-59
2022/03/27 00:02:34;;;;;;;2.53;1.40;;;;;;;2.51;74.36;98179.44;5074594;28;20482;-59
2022/03/27 00:05:05;;;;;;;3.75;1.73;;;;;;;2.44;73.49;98178.69;5079194;28;20327;-59
2022/03/27 00:07:35;;;;;;;1.95;1.13;;;;;;;2.35;73.86;98178.88;5079124;28;20135;-59
2022/03/27 00:10:07;;;;;;;2.42;1.17;;;;;;;2.21;73.96;98175.66;5078549;28;20131;-59
2022/03/27 00:12:39;;;;;;;1.92;1.30;;;;;;;2.22;74.98;98161.91;5078851;28;20553;-59
2022/03/27 00:15:10;;;;;;;2.45;1.60;;;;;;;2.47;74.61;98152.91;5078986;28;20064;-60
2022/03/27 00:17:41;;;;;;;2.40;1.60;;;;;;;2.62;74.28;98135.44;5078884;28;20090;-59
2022/03/27 00:20:13;;;;;;;2.92;1.50;;;;;;;2.34;74.07;98084.38;5078920;28;20080;-59
2022/03/27 00:22:43;;;;;;;1.85;1.27;;;;;;;2.80;73.10;98140.25;5078747;28;20107;-59
2022/03/27 00:25:14;;;;;;;1.65;1.30;;;;;;;2.82;73.25;98135.88;5078693;28;20083;-60
2022/03/27 00:27:46;;;;;;;1.98;1.10;;;;;;;2.72;72.65;98134.38;5078717;28;20098;-60
2022/03/27 00:30:17;;;;;;;3.10;1.17;;;;;;;2.65;73.11;98135.38;5078592;28;20080;-60
2022/03/27 00:32:47;;;;;;;1.73;1.10;;;;;;;2.53;73.17;98132.16;5078460;28;20095;-60
2022/03/27 00:35:18;;;;;;;5.25;1.60;;;;;;;2.45;73.66;98134.03;5078321;28;20128;-59
2022/03/27 00:37:51;;;;;;;2.60;1.17;;;;;;;2.30;74.23;98135.13;5078452;28;20099;-59
2022/03/27 00:40:22;;;;;;;1.40;1.17;;;;;;;1.94;75.05;98126.28;5078345;28;20115;-59
2022/03/27 00:42:55;;;;;;;1.67;1.58;;;;;;;1.81;75.69;98124.78;5074969;28;20060;-60
2022/03/27 00:45:26;;;;;;;3.45;1.30;;;;;;;1.62;76.37;98114.78;5069423;28;20075;-59
2022/03/27 00:47:56;;;;;;;1.73;1.30;;;;;;;1.46;76.59;98121.00;5065365;28;20106;-60
2022/03/27 00:50:27;;;;;;;1.60;1.48;;;;;;;1.28;77.51;98110.09;5066671;28;20059;-60
2022/03/27 00:52:58;;;;;;;5.50;1.85;;;;;;;1.23;78.11;98096.44;5078291;28;20343;-60
2022/03/27 00:55:28;;;;;;;1.85;1.27;;;;;;;1.19;77.67;98107.63;5078192;28;20052;-59
2022/03/27 00:58:01;;;;;;;1.55;1.45;;;;;;;1.10;78.76;98115.50;5078142;28;20044;-60
2022/03/27 01:00:55;;;;;;;2.92;1.40;;;;;;;0.95;78.99;98077.09;5078444;28;20063;-60
2022/03/27 01:03:27;;;;;;;1.50;1.40;;;;;;;1.13;79.25;98105.16;5077916;28;20056;-59
2022/03/27 01:05:59;;;;;;;2.17;1.50;;;;;;;1.16;79.18;98099.13;5077912;28;20538;-60
2022/03/27 01:11:22;;;;;;;3.38;1.50;;;;;;;1.14;79.43;98080.28;5077974;28;20111;-59
2022/03/27 01:13:56;;;;;;;10.10;6.20;;;;;;;1.04;79.45;98084.69;5069261;28;20048;-59
2022/03/27 01:16:38;;;;;;;7.05;3.85;;;;;;;0.98;79.99;98074.50;5074513;28;20111;-59
2022/03/27 01:19:10;;;;;;;3.35;2.05;;;;;;;0.36;79.73;97977.59;5076899;28;20040;-58
2022/03/27 01:21:44;;;;;;;3.78;1.70;;;;;;;0.83;80.00;98040.41;5077872;28;20083;-59
2022/03/27 01:24:18;;;;;;;2.60;1.63;;;;;;;0.81;79.83;98059.28;5077693;28;20281;-59
2022/03/27 01:26:49;;;;;;;3.03;1.67;;;;;;;0.70;80.63;98051.72;5077861;28;20119;-59
2022/03/27 01:29:20;;;;;;;2.03;1.40;;;;;;;0.91;80.88;98062.59;5077798;28;20068;-60
2022/03/27 01:31:51;;;;;;;3.65;2.05;;;;;;;0.76;80.97;98015.63;5077005;28;20044;-60
2022/03/27 01:34:22;;;;;;;2.45;1.45;;;;;;;1.21;80.48;98064.75;5075588;28;20059;-59
2022/03/27 01:36:54;;;;;;;3.53;2.08;;;;;;;1.34;79.98;98062.00;5077430;28;20056;-59
2022/03/27 01:39:25;;;;;;;6.40;3.80;;;;;;;1.61;79.91;98056.41;5074816;28;20083;-60
2022/03/27 01:41:56;;;;;;;4.97;2.72;;;;;;;1.83;78.98;98061.25;5074839;28;20048;-60
2022/03/27 01:44:26;;;;;;;4.13;2.30;;;;;;;1.31;78.68;97938.53;5075643;28;20044;-60
2022/03/27 01:46:57;;;;;;;2.45;1.88;;;;;;;2.23;77.76;98055.41;5077473;28;20083;-60
2022/03/27 01:49:28;;;;;;;2.72;2.15;;;;;;;2.34;76.95;98053.44;5068620;28;20270;-60
2022/03/27 01:52:00;;;;;;;2.72;1.73;;;;;;;2.44;76.89;98039.50;5075217;28;20040;-59
2022/03/27 01:54:31;;;;;;;2.20;1.67;;;;;;;2.52;76.21;98027.34;5077510;28;20752;-61
2022/03/27 01:57:02;;;;;;;3.45;1.80;;;;;;;2.67;75.42;98025.31;5077841;28;20056;-59
2022/03/27 01:59:34;;;;;;;5.57;2.92;;;;;;;2.82;75.06;98030.16;5077405;28;20049;-59
2022/03/27 02:02:05;;;;;;;3.25;2.40;;;;;;;3.06;74.84;98022.78;5077401;28;20052;-60
2022/03/27 02:04:36;;;;;;;10.15;6.40;;;;;;;3.28;74.53;98005.94;5077532;28;20247;-60
2022/03/27 02:07:08;;;;;;;26.35;14.52;;;;;;;3.63;73.33;98014.56;5077712;28;20185;-60
2022/03/27 02:09:39;;;;;;;26.70;14.30;;;;;;;3.84;72.87;98013.19;5077485;28;20351;-60
2022/03/27 02:12:10;;;;;;;6.78;3.72;;;;;;;4.02;71.90;98011.84;5077512;28;20085;-59
2022/03/27 02:14:41;;;;;;;4.43;1.92;;;;;;;4.12;71.42;98005.56;5077297;28;20052;-59
2022/03/27 02:17:12;;;;;;;5.53;2.15;;;;;;;4.23;71.63;97995.78;5077166;28;20044;-60
2022/03/27 02:19:43;;;;;;;3.78;2.00;;;;;;;4.22;70.81;97983.75;5076192;28;20303;-60
2022/03/27 02:22:15;;;;;;;3.90;2.10;;;;;;;4.37;70.88;97986.78;5077032;28;20048;-60
2022/03/27 02:24:45;;;;;;;3.42;2.65;;;;;;;4.44;70.67;97978.84;5077436;28;20153;-60
2022/03/27 02:27:16;;;;;;;3.05;1.75;;;;;;;4.43;70.55;97958.19;5077233;28;20070;-60
2022/03/27 02:29:47;;;;;;;4.95;1.50;;;;;;;4.62;70.13;97972.28;5077289;28;20069;-61
2022/03/27 02:32:17;;;;;;;2.22;1.75;;;;;;;4.64;69.79;97970.50;5075447;28;20063;-60
2022/03/27 02:34:48;;;;;;;3.05;1.90;;;;;;;4.61;69.30;97955.06;5075761;28;20044;-60
2022/03/27 02:37:20;;;;;;;3.58;2.35;;;;;;;4.59;69.33;97962.00;5076158;28;20098;-60
2022/03/27 02:39:51;;;;;;;3.17;2.05;;;;;;;4.67;69.51;97954.91;5075488;28;20400;-60
2022/03/27 02:42:22;;;;;;;1.85;1.23;;;;;;;4.81;69.43;97945.88;5075332;28;20351;-60
2022/03/27 02:44:53;;;;;;;2.45;1.75;;;;;;;4.92;68.88;97946.41;5075960;28;20102;-60
2022/03/27 02:47:23;;;;;;;2.03;1.60;;;;;;;5.01;68.59;97943.50;5073148;28;20072;-60
2022/03/27 02:49:54;;;;;;;1.65;1.20;;;;;;;4.98;68.28;97943.63;5076727;28;20044;-60
2022/03/27 02:52:26;;;;;;;2.63;1.90;;;;;;;5.18;68.35;97925.72;5076651;28;20324;-60
2022/03/27 02:54:57;;;;;;;1.80;1.65;;;;;;;5.28;67.91;97915.06;5079528;28;20876;-60
2022/03/27 02:57:28;;;;;;;2.58;1.73;;;;;;;5.54;67.36;97925.41;5077369;28;20060;-61
2022/03/27 02:59:59;;;;;;;3.50;2.13;;;;;;;5.78;67.02;97925.47;5079214;28;20267;-61
2022/03/27 03:02:30;;;;;;;3.13;1.83;;;;;;;5.94;66.33;97924.09;5078784;28;20067;-60
2022/03/27 03:05:01;;;;;;;3.40;1.90;;;;;;;5.88;66.56;97919.06;5085070;28;20119;-60
2022/03/27 03:07:34;;;;;;;7.03;2.80;;;;;;;5.88;66.65;97916.47;5085877;28;20052;-60
2022/03/27 03:10:06;;;;;;;5.80;2.65;;;;;;;5.83;67.24;97923.56;5085821;28;20461;-60
2022/03/27 03:12:41;;;;;;;3.97;2.03;;;;;;;5.68;66.86;97924.09;5085716;28;20394;-60
2022/03/27 03:15:12;;;;;;;3.58;2.40;;;;;;;5.36;67.45;97926.00;5085817;28;20420;-60
2022/03/27 03:17:44;;;;;;;3.63;3.30;;;;;;;4.76;67.89;97840.78;5086492;28;20083;-60
2022/03/27 03:20:15;;;;;;;4.22;3.47;;;;;;;5.23;68.73;97906.59;5086791;28;20110;-60
2022/03/27 03:22:48;;;;;;;4.55;3.35;;;;;;;5.29;68.55;97902.06;5086210;28;20036;-60
2022/03/27 03:25:18;;;;;;;5.38;3.25;;;;;;;5.58;67.96;97898.50;5086510;28;20048;-61
2022/03/27 03:27:49;;;;;;;4.03;3.28;;;;;;;6.06;67.63;97894.25;5086387;28;20054;-61
2022/03/27 03:30:20;;;;;;;5.50;3.63;;;;;;;6.19;66.88;97894.66;5086146;28;20123;-60
2022/03/27 03:32:51;;;;;;;4.25;3.20;;;;;;;6.33;66.49;97887.22;5086400;28;20379;-61
2022/03/27 03:35:22;;;;;;;3.75;2.90;;;;;;;6.40;66.02;97886.09;5086201;28;20094;-61
2022/03/27 03:38:12;;;;;;;3.28;2.60;;;;;;;6.42;65.47;97891.25;5085542;28;20385;-61
2022/03/27 03:40:42;;;;;;;2.85;2.50;;;;;;;6.28;66.10;97889.16;5085118;28;20051;-60
2022/03/27 03:43:13;;;;;;;3.42;2.30;;;;;;;6.22;66.46;97894.56;5085355;28;20052;-61
2022/03/27 03:45:44;;;;;;;4.30;2.30;;;;;;;6.14;67.11;97901.75;5084831;28;20308;-61
2022/03/27 03:48:15;;;;;;;5.30;4.28;;;;;;;5.93;67.29;97899.00;5085316;28;20058;-61
2022/03/27 03:50:45;;;;;;;7.95;4.93;;;;;;;5.62;67.80;97905.28;5084505;28;20049;-62
2022/03/27 03:53:17;;;;;;;6.88;5.25;;;;;;;5.60;67.88;97917.44;5085311;28;20082;-61
2022/03/27 03:55:48;;;;;;;6.63;5.07;;;;;;;5.48;68.46;97915.25;5085743;28;20052;-61
2022/03/27 03:58:19;;;;;;;7.18;5.40;;;;;;;5.43;69.04;97929.25;5085909;28;20105;-62
2022/03/27 04:00:50;;;;;;;10.50;6.72;;;;;;;5.39;68.74;97919.00;5085413;28;20066;-61
2022/03/27 04:03:21;;;;;;;8.85;6.78;;;;;;;5.42;68.30;97928.41;5084950;28;20060;-61
2022/03/27 04:05:52;;;;;;;13.48;8.55;;;;;;;5.25;69.01;97925.53;5084321;28;20124;-61
2022/03/27 04:08:24;;;;;;;13.18;8.77;;;;;;;5.17;69.81;97936.97;5084535;28;20059;-61
2022/03/27 04:10:54;;;;;;;16.10;8.60;;;;;;;5.10;69.74;97945.81;5084840;28;20200;-62
2022/03/27 04:13:25;;;;;;;13.90;8.38;;;;;;;5.07;69.87;97938.16;5084395;28;20056;-62
2022/03/27 04:15:55;;;;;;;9.68;6.28;;;;;;;5.05;70.04;97934.75;5084858;28;20130;-61
2022/03/27 04:18:26;;;;;;;6.97;5.07;;;;;;;5.18;69.73;97935.22;5084366;28;20052;-61
2022/03/27 04:20:57;;;;;;;9.75;5.70;;;;;;;5.29;69.61;97915.03;5085510;28;20053;-61
2022/03/27 04:23:29;;;;;;;8.68;5.10;;;;;;;5.70;68.55;97943.88;5085115;28;20048;-61
2022/03/27 04:26:00;;;;;;;5.72;3.63;;;;;;;5.82;68.06;97937.44;5085697;28;20059;-61
2022/03/27 04:28:31;;;;;;;6.30;3.78;;;;;;;5.81;67.09;97946.09;5084737;28;20053;-61
2022/03/27 04:31:01;;;;;;;6.50;4.22;;;;;;;5.81;67.12;97940.91;5082345;28;20059;-62
2022/03/27 04:33:32;;;;;;;5.28;4.07;;;;;;;5.42;66.91;97868.84;5082783;28;20056;-61
2022/03/27 04:36:05;;;;;;;6.97;4.13;;;;;;;5.95;66.52;97943.91;5083833;28;20172;-62
2022/03/27 04:38:38;;;;;;;5.38;3.35;;;;;;;6.27;66.03;97939.34;5083770;28;20059;-61
2022/03/27 04:41:08;;;;;;;5.72;3.42;;;;;;;6.61;64.60;97946.69;5084498;28;20106;-62
2022/03/27 04:43:39;;;;;;;5.05;3.42;;;;;;;6.89;63.16;97943.09;5083857;28;20351;-62
2022/03/27 04:46:09;;;;;;;5.07;3.00;;;;;;;7.11;61.80;97953.47;5084433;28;20060;-62
2022/03/27 04:48:40;;;;;;;5.68;2.95;;;;;;;7.28;60.80;97956.22;5083492;28;20075;-62
2022/03/27 04:51:11;;;;;;;5.03;3.08;;;;;;;7.44;59.94;97960.81;5084199;28;20082;-62
2022/03/27 04:53:43;;;;;;;5.22;2.80;;;;;;;7.43;59.97;97953.94;5083450;28;20128;-61
2022/03/27 04:56:14;;;;;;;2.53;1.60;;;;;;;7.44;59.32;97947.81;5083537;28;20048;-61
2022/03/27 04:58:45;;;;;;;3.80;1.80;;;;;;;7.25;58.94;97956.38;5083809;28;20088;-61
2022/03/27 05:01:16;;;;;;;2.30;1.58;;;;;;;6.64;57.76;97927.56;5083202;28;20044;-62
2022/03/27 05:03:47;;;;;;;1.20;1.10;;;;;;;6.29;59.63;97952.22;5083587;28;20056;-61
2022/03/27 05:06:18;;;;;;;5.30;2.15;;;;;;;5.75;59.95;97900.50;5083159;28;20107;-63
2022/03/27 05:08:51;;;;;;;1.60;1.10;;;;;;;5.93;60.30;97939.66;5083539;28;20123;-62
2022/03/27 05:11:22;;;;;;;1.27;0.82;;;;;;;5.72;59.90;97910.16;5083497;28;20129;-62
2022/03/27 05:13:53;;;;;;;5.65;1.70;;;;;;;5.93;60.15;97934.47;5082207;28;20060;-62
2022/03/27 05:16:26;;;;;;;6.53;2.90;;;;;;;5.76;59.75;97948.00;5084356;28;20041;-61
2022/03/27 05:18:57;;;;;;;1.27;0.90;;;;;;;5.49;60.87;97961.00;5084195;28;20071;-62
2022/03/27 05:21:28;;;;;;;0.73;0.70;;;;;;;5.27;61.56;97962.56;5084008;28;20079;-61
2022/03/27 05:24:01;;;;;;;1.05;0.88;;;;;;;5.02;63.50;97965.94;5084010;28;20067;-61
2022/03/27 05:26:35;;;;;;;0.80;0.70;;;;;;;4.84;64.29;97961.28;5083966;28;20120;-61
2022/03/27 05:29:08;;;;;;;3.60;1.77;;;;;;;4.92;65.08;97964.53;5083562;28;20158;-62
2022/03/27 05:31:39;;;;;;;4.03;2.00;;;;;;;5.03;64.93;97967.59;5083582;28;20058;-62
2022/03/27 05:34:13;;;;;;;2.80;1.33;;;;;;;4.92;64.78;97959.34;5084160;28;20052;-61
2022/03/27 05:36:43;;;;;;;5.18;1.48;;;;;;;5.02;64.88;97965.94;5084313;28;20280;-63
2022/03/27 05:39:16;;;;;;;1.17;0.80;;;;;;;5.22;64.32;97970.50;5083981;28;20052;-61
2022/03/27 05:41:47;;;;;;;1.58;0.73;;;;;;;5.25;63.42;97982.50;5083519;28;20810;-63
2022/03/27 05:44:17;;;;;;;1.77;0.90;;;;;;;5.20;63.56;97980.03;5083927;28;20142;-63
2022/03/27 05:46:48;;;;;;;1.73;0.75;;;;;;;5.02;63.49;97991.81;5083960;28;20448;-63
2022/03/27 05:49:19;;;;;;;2.22;0.98;;;;;;;4.08;63.78;97861.81;5083839;28;20049;-65
2022/03/27 05:51:50;;;;;;;3.35;1.60;;;;;;;4.85;64.00;97996.66;5083761;28;20288;-64
2022/03/27 05:54:22;;;;;;;0.63;0.63;;;;;;;4.69;63.90;98010.03;5083748;28;20051;-62
2022/03/27 05:56:57;;;;;;;1.10;0.60;;;;;;;4.54;63.79;98015.63;5083693;28;20067;-62
2022/03/27 05:59:28;;;;;;;1.98;0.85;;;;;;;4.39;64.53;98016.03;5083774;28;20056;-63
2022/03/27 06:01:59;;;;;;;1.58;0.80;;;;;;;4.20;64.79;98026.88;5083616;28;20087;-63
2022/03/27 06:04:30;;;;;;;0.73;0.70;;;;;;;3.91;65.78;98013.88;5083916;28;20586;-62
2022/03/27 06:07:01;;;;;;;0.70;0.70;;;;;;;3.79;66.11;98015.88;5083435;28;20126;-62
2022/03/27 06:09:34;;;;;;;1.00;0.80;;;;;;;3.74;66.74;98012.56;5083393;28;20266;-63
2022/03/27 06:12:06;;;;;;;2.00;1.33;;;;;;;3.68;67.61;98017.88;5083926;28;20079;-62
2022/03/27 06:14:37;;;;;;;5.30;2.55;;;;;;;3.91;68.27;98024.22;5083358;28;20408;-63
2022/03/27 06:17:07;;;;;;;2.25;1.58;;;;;;;3.88;68.19;98041.47;5083575;28;20060;-64
2022/03/27 06:19:38;;;;;;;0.73;0.70;;;;;;;3.83;68.50;98040.75;5083245;28;20068;-65
2022/03/27 06:22:09;;;;;;;2.50;1.50;;;;;;;3.84;68.52;98044.16;5083576;28;20105;-61
2022/03/27 06:24:41;;;;;;;1.33;1.00;;;;;;;3.65;68.85;98043.78;5085987;28;20119;-63
2022/03/27 06:27:12;;;;;;;11.52;5.13;;;;;;;3.58;69.59;98047.41;5087780;28;20283;-63
2022/03/27 06:29:43;;;;;;;6.10;3.63;;;;;;;3.49;69.60;98052.78;5087214;28;20057;-64
2022/03/27 06:32:14;;;;;;;1.20;0.95;;;;;;;3.40;69.74;98054.69;5087017;28;20050;-63
2022/03/27 06:34:44;;;;;;;2.03;1.00;;;;;;;3.15;69.72;98032.91;5087159;28;20098;-61
2022/03/27 06:37:15;;;;;;;2.80;0.80;;;;;;;3.11;69.58;98064.81;5087503;28;20097;-62
2022/03/27 06:39:48;;;;;;;1.45;1.00;;;;;;;3.03;70.00;98081.31;5086956;28;20060;-60
2022/03/27 06:42:19;;;;;;;1.00;0.80;;;;;;;2.91;70.15;98081.56;5087155;28;20051;-63
2022/03/27 06:44:51;;;;;;;3.60;1.73;;;;;;;2.48;71.16;98015.38;5087000;28;20048;-61
2022/03/27 06:47:22;;;;;;;1.17;1.02;;;;;;;2.85;71.97;98086.84;5087252;28;20095;-61
2022/03/27 06:49:54;;;;;;;2.75;1.30;;;;;;;2.74;72.11;98078.47;5086828;28;20238;-61
2022/03/27 06:52:26;;;;;;;2.20;1.33;;;;;;;2.73;72.70;98097.41;5086744;28;20095;-61
2022/03/27 06:54:59;;;;;;;2.53;1.60;;;;;;;2.71;72.78;98091.41;5086610;28;20063;-62
2022/03/27 06:57:30;;;;;;;3.20;1.63;;;;;;;2.58;72.92;98094.25;5086650;28;20259;-61
2022/03/27 07:03:03;;;;;;;22.23;8.95;;;;;;;2.58;74.55;98089.09;5086881;28;20044;-61
2022/03/27 07:05:38;;;;;;;16.45;8.45;;;;;;;2.66;74.19;98096.66;5086061;28;20060;-62
2022/03/27 07:08:10;;;;;;;8.85;5.38;;;;;;;2.61;74.43;98092.47;5087088;28;20060;-63
2022/03/27 07:10:44;;;;;;;13.60;8.05;;;;;;;2.36;74.17;98067.16;5086789;28;20142;-61
2022/03/27 07:13:16;;;;;;;17.85;11.32;;;;;;;2.38;74.90;98092.03;5086777;28;20063;-61
2022/03/27 07:15:49;;;;;;;13.00;8.80;;;;;;;2.11;74.90;98057.28;5086712;28;20090;-62
2022/03/27 07:18:20;;;;;;;8.88;6.47;;;;;;;2.36;75.17;98088.63;5086256;28;20060;-61
2022/03/27 07:20:50;;;;;;;2.55;2.03;;;;;;;2.30;75.41;98087.91;5086666;28;20121;-62
2022/03/27 07:23:23;;;;;;;3.45;1.85;;;;;;;2.36;75.35;98087.78;5086731;28;20435;-61
2022/03/27 07:25:56;;;;;;;3.28;1.75;;;;;;;2.37;75.28;98086.88;5086466;28;20391;-60
2022/03/27 07:28:30;;;;;;;3.20;1.52;;;;;;;2.29;75.17;98086.19;5085830;28;20060;-62
2022/03/27 07:31:02;;;;;;;2.00;1.33;;;;;;;2.28;75.74;98095.66;5085719;28;20052;-62
2022/03/27 07:33:33;;;;;;;2.08;1.30;;;;;;;1.94;75.55;98043.88;5086489;28;20048;-62
2022/03/27 07:36:04;;;;;;;1.35;1.00;;;;;;;2.23;75.43;98086.31;5085391;28;20052;-61
2022/03/27 07:38:34;;;;;;;1.70;1.10;;;;;;;2.14;75.42;98098.44;5085813;28;20048;-60
2022/03/27 07:41:07;;;;;;;1.60;1.15;;;;;;;2.13;75.61;98101.91;5085672;28;20394;-60
2022/03/27 07:43:37;;;;;;;2.88;1.42;;;;;;;2.00;75.46;98084.97;5085378;28;20060;-61
2022/03/27 07:46:08;;;;;;;1.70;1.40;;;;;;;2.00;75.33;98102.13;5085632;28;20066;-61
2022/03/27 07:48:39;;;;;;;1.58;1.30;;;;;;;2.05;75.32;98103.78;5084896;28;20261;-60
2022/03/27 07:51:10;;;;;;;2.55;1.60;;;;;;;2.15;74.95;98105.31;5085184;28;20779;-60
2022/03/27 07:53:40;;;;;;;4.28;1.77;;;;;;;2.25;74.79;98106.03;5085095;28;20062;-62
2022/03/27 07:56:13;;;;;;;3.97;2.10;;;;;;;2.25;74.22;98100.03;5084471;28;20056;-60
2022/03/27 07:58:47;;;;;;;4.78;2.53;;;;;;;2.09;74.58;98079.66;5085266;28;20052;-60
2022/03/27 08:01:18;;;;;;;5.22;2.90;;;;;;;2.17;74.78;98097.56;5084904;28;20056;-60
2022/03/27 08:03:49;;;;;;;4.93;2.90;;;;;;;2.16;74.41;98095.88;5085008;28;20052;-60
2022/03/27 08:06:20;;;;;;;4.68;2.75;;;;;;;2.20;74.60;98112.09;5084593;28;20056;-61
2022/03/27 08:08:51;;;;;;;13.30;4.72;;;;;;;2.16;74.65;98109.59;5084912;28;20064;-61
2022/03/27 08:11:26;;;;;;;42.13;11.93;;;;;;;2.13;74.61;98109.66;5084672;28;20048;-61
2022/03/27 08:13:56;;;;;;;17.58;5.60;;;;;;;2.14;73.44;98101.03;5084862;28;20055;-60
2022/03/27 08:16:27;;;;;;;11.73;4.78;;;;;;;2.16;73.64;98107.00;5084627;28;20044;-60
2022/03/27 08:18:58;;;;;;;8.60;3.78;;;;;;;2.16;73.38;98096.72;5084652;28;20060;-60
2022/03/27 08:21:29;;;;;;;6.97;2.83;;;;;;;2.18;72.78;98096.69;5077153;28;20327;-60
2022/03/27 08:24:00;;;;;;;7.70;3.40;;;;;;;2.19;72.24;98094.97;5076646;28;20139;-60
2022/03/27 08:29:20;;;;;;;8.48;3.22;;;;;;;2.14;71.75;98085.56;5075849;28;20064;-60
2022/03/27 08:31:51;;;;;;;9.38;4.35;;;;;;;2.20;71.78;98101.81;5075176;28;20052;-60
2022/03/27 08:34:23;;;;;;;9.35;4.00;;;;;;;2.22;71.85;98094.91;5074004;28;20263;-60
2022/03/27 08:36:54;;;;;;;11.20;3.45;;;;;;;2.01;71.74;98071.22;5076772;28;20254;-60
2022/03/27 08:39:27;;;;;;;10.15;3.90;;;;;;;2.06;71.00;98069.41;5077011;28;20205;-62
2022/03/27 08:41:59;;;;;;;10.25;4.47;;;;;;;2.09;70.86;98077.06;5076977;28;20067;-60
2022/03/27 08:44:33;;;;;;;10.25;3.88;;;;;;;1.97;71.24;98053.25;5074368;28;20052;-60
2022/03/27 08:47:08;;;;;;;10.30;3.42;;;;;;;2.21;70.89;98090.63;5076608;28;20378;-61
2022/03/27 08:49:43;;;;;;;14.20;4.40;;;;;;;1.63;70.82;98003.19;5077346;28;20060;-60
2022/03/27 08:52:41;;;;;;;11.98;3.70;;;;;;;2.22;70.74;98094.91;5075759;28;20074;-61
2022/03/27 08:55:19;;;;;;;11.90;3.72;;;;;;;2.20;70.98;98106.94;5074992;28;20048;-60
2022/03/27 08:58:01;;;;;;;15.10;5.75;;;;;;;2.19;70.70;98095.81;5074532;28;20239;-60
2022/03/27 09:00:33;;;;;;;9.45;3.83;;;;;;;2.09;71.13;98084.81;5075089;28;20343;-61
2022/03/27 09:03:06;;;;;;;11.82;3.80;;;;;;;2.12;71.11;98094.22;5076767;28;20052;-60
2022/03/27 09:05:38;;;;;;;14.70;4.28;;;;;;;2.14;71.13;98103.59;5077136;28;20051;-60
2022/03/27 09:08:11;;;;;;;8.43;3.47;;;;;;;2.05;71.59;98088.34;5074216;28;20060;-60
2022/03/27 09:10:42;;;;;;;11.13;3.88;;;;;;;1.87;71.22;98055.13;5076965;28;20109;-60
2022/03/27 09:13:17;;;;;;;12.98;4.40;;;;;;;2.13;71.52;98107.06;5074894;28;20053;-60
2022/03/27 09:16:00;;;;;;;13.02;4.30;;;;;;;2.07;71.25;98090.84;5075875;28;20045;-61
2022/03/27 09:18:45;;;;;;;10.90;3.88;;;;;;;2.16;70.88;98107.00;5079760;28;20052;-61
2022/03/27 09:21:19;;;;;;;8.98;3.65;;;;;;;1.65;70.97;98016.06;5083468;28;20052;-60
2022/03/27 09:23:56;;;;;;;10.77;3.92;;;;;;;2.21;71.03;98116.41;5082266;28;20089;-60
2022/03/27 09:26:28;;;;;;;11.13;4.35;;;;;;;2.22;71.37;98110.34;5083566;28;20083;-60
2022/03/27 09:29:10;;;;;;;12.15;3.65;;;;;;;2.22;71.12;98115.50;5083175;28;20071;-60
2022/03/27 09:31:41;;;;;;;9.57;3.35;;;;;;;2.19;71.05;98115.56;5083551;28;20108;-60
2022/03/27 09:34:12;;;;;;;15.45;4.38;;;;;;;2.17;71.17;98118.16;5083071;28;20115;-60
2022/03/27 09:36:46;;;;;;;9.57;3.63;;;;;;;2.16;71.51;98129.34;5082828;28;20048;-60
2022/03/27 09:39:17;;;;;;;11.05;3.50;;;;;;;2.09;71.51;98115.72;5083536;28;20350;-60
2022/03/27 09:41:50;;;;;;;15.70;4.35;;;;;;;2.11;71.75;98119.13;5083103;28;20048;-59
2022/03/27 09:44:36;;;;;;;10.48;3.88;;;;;;;2.05;71.59;98120.97;5083072;28;20221;-60
2022/03/27 09:47:08;;;;;;;19.08;5.22;;;;;;;2.18;71.33;98135.34;5083127;28;20115;-60
2022/03/27 09:49:44;;;;;;;10.38;3.50;;;;;;;2.19;71.81;98142.19;5083228;28;20787;-60
2022/03/27 09:52:16;;;;;;;11.40;3.55;;;;;;;2.19;72.12;98151.66;5083089;28;20044;-61
2022/03/27 09:54:56;;;;;;;13.63;3.30;;;;;;;2.20;72.20;98153.34;5083878;28;20350;-60
2022/03/27 09:57:28;;;;;;;7.97;3.85;;;;;;;2.20;71.55;98153.34;5083576;28;20365;-60
2022/03/27 10:00:13;;;;;;;12.43;3.30;;;;;;;2.05;71.63;98126.97;5086724;28;20055;-60
2022/03/27 10:02:45;;;;;;;9.45;3.25;;;;;;;2.20;71.78;98168.78;5087939;28;20052;-60
2022/03/27 10:05:16;;;;;;;18.65;2.95;;;;;;;1.94;70.37;98111.66;5088456;28;20052;-60
2022/03/27 10:07:49;;;;;;;7.68;2.60;;;;;;;2.06;69.53;98113.19;5088368;28;20062;-59
2022/03/27 10:10:23;;;;;;;13.10;2.92;;;;;;;2.30;69.69;98160.91;5087566;28;20297;-59
2022/03/27 10:12:56;;;;;;;9.48;3.00;;;;;;;2.29;69.79;98163.50;5087672;28;20150;-59
2022/03/27 10:15:30;;;;;;;36.03;12.25;;;;;;;2.29;69.80;98178.97;5087684;28;20067;-59
2022/03/27 10:18:03;;;;;;;17.02;4.03;;;;;;;2.23;69.59;98164.47;5087315;28;20049;-59
2022/03/27 10:20:39;;;;;;;8.25;2.50;;;;;;;2.05;69.08;98150.16;5087829;28;20102;-59
2022/03/27 10:23:12;;;;;;;12.88;3.00;;;;;;;2.25;68.58;98179.91;5087616;28;20072;-59
2022/03/27 10:25:44;;;;;;;9.90;2.28;;;;;;;2.00;68.74;98151.06;5087762;28;20335;-60
2022/03/27 10:28:18;;;;;;;9.45;2.40;;;;;;;2.19;68.28;98198.03;5087977;28;20388;-59
2022/03/27 10:30:51;;;;;;;8.13;2.15;;;;;;;2.15;66.81;98182.63;5087683;28;20094;-60
2022/03/27 10:33:26;;;;;;;7.80;2.45;;;;;;;1.99;67.93;98178.56;5087499;28;20796;-60
2022/03/27 10:36:05;;;;;;;7.03;2.05;;;;;;;2.21;66.96;98201.44;5087306;28;20094;-59
2022/03/27 10:38:47;;;;;;;12.80;2.28;;;;;;;2.13;66.80;98204.13;5087733;28;20083;-59
2022/03/27 10:41:22;;;;;;;10.45;2.22;;;;;;;2.14;67.05;98216.97;5087439;28;20058;-59
2022/03/27 10:43:58;;;;;;;6.70;2.00;;;;;;;2.13;67.43;98225.59;5087384;28;20060;-59
2022/03/27 10:46:31;;;;;;;6.30;1.83;;;;;;;2.11;67.61;98235.06;5086960;28;20269;-59
2022/03/27 10:49:17;;;;;;;8.45;2.67;;;;;;;2.07;67.87;98240.28;5086929;28;20049;-59
2022/03/27 10:51:48;;;;;;;11.93;2.08;;;;;;;1.97;67.73;98229.25;5086047;28;20139;-59
2022/03/27 10:54:21;;;;;;;7.43;2.70;;;;;;;2.01;68.01;98240.38;5087649;28;20051;-60
2022/03/27 10:56:54;;;;;;;42.33;15.55;;;;;;;1.89;67.47;98236.25;5086912;28;20090;-58
2022/03/27 10:59:26;;;;;;;8.35;2.03;;;;;;;1.94;67.23;98231.88;5087091;28;20730;-59
2022/03/27 11:02:00;;;;;;;5.55;1.88;;;;;;;1.87;66.96;98233.72;5086983;28;20253;-59
2022/03/27 11:04:40;;;;;;;6.13;1.73;;;;;;;1.92;67.83;98267.09;5086581;28;20154;-59
2022/03/27 11:07:31;;;;;;;7.65;2.17;;;;;;;1.91;67.93;98255.94;5083622;28;20063;-59
2022/03/27 11:10:02;;;;;;;11.07;2.13;;;;;;;1.91;68.43;98270.56;5079607;28;20056;-59
2022/03/27 11:12:33;;;;;;;6.55;2.25;;;;;;;1.93;67.59;98273.97;5085957;28;20051;-59
2022/03/27 11:15:05;;;;;;;6.22;1.60;;;;;;;1.90;67.49;98263.72;5085309;28;20059;-59
2022/03/27 11:17:52;;;;;;;10.95;1.90;;;;;;;1.94;68.10;98275.66;5084894;28;20060;-59
2022/03/27 11:20:56;;;;;;;9.43;2.30;;;;;;;1.91;67.59;98280.88;5085519;28;20423;-59
2022/03/27 11:23:32;;;;;;;6.68;2.13;;;;;;;1.86;68.22;98282.66;5078928;28;20044;-60
2022/03/27 11:26:04;;;;;;;6.75;1.40;;;;;;;1.66;68.64;98268.31;5077124;28;20395;-59
2022/03/27 11:28:51;;;;;;;3.83;1.45;;;;;;;1.69;68.67;98270.81;5075856;28;20400;-59
2022/03/27 11:31:28;;;;;;;3.92;1.10;;;;;;;1.76;69.01;98284.50;5077355;28;20054;-59
2022/03/27 11:34:21;;;;;;;5.28;1.40;;;;;;;1.74;69.45;98281.06;5076886;28;20062;-59
2022/03/27 11:37:13;;;;;;;24.67;9.82;;;;;;;1.69;70.04;98286.28;5072283;28;20048;-58
2022/03/27 11:39:44;;;;;;;7.93;2.13;;;;;;;1.39;70.43;98240.31;5078112;28;20044;-59
2022/03/27 11:42:35;;;;;;;6.55;1.85;;;;;;;1.62;69.99;98284.69;5076502;28;20262;-59
2022/03/27 11:45:24;;;;;;;7.78;2.53;;;;;;;1.61;70.63;98282.94;5077440;28;20051;-59
2022/03/27 11:47:57;;;;;;;8.25;2.00;;;;;;;1.58;70.89;98293.28;5076312;28;20115;-59
2022/03/27 11:50:34;;;;;;;4.53;1.20;;;;;;;1.51;71.18;98296.81;5078131;28;20049;-58
2022/03/27 11:53:05;;;;;;;5.57;1.17;;;;;;;1.26;71.39;98266.19;5078326;28;20118;-59
2022/03/27 11:55:37;;;;;;;3.95;1.60;;;;;;;0.92;72.12;98213.41;5078409;28;20107;-59
2022/03/27 11:58:11;;;;;;;5.78;2.00;;;;;;;1.44;72.92;98310.59;5078334;28;20052;-59
2022/03/27 12:00:43;;;;;;;10.95;3.10;;;;;;;1.17;73.33;98271.44;5078463;28;20508;-59
2022/03/27 12:03:20;;;;;;;4.65;1.83;;;;;;;1.32;74.30;98313.31;5075908;28;20323;-60
2022/03/27 12:05:54;;;;;;;6.05;2.17;;;;;;;1.25;75.43;98320.25;5075726;28;20048;-59
2022/03/27 12:08:34;;;;;;;6.00;2.60;;;;;;;1.18;76.01;98323.75;5078051;28;20060;-59
2022/03/27 12:11:06;;;;;;;3.60;1.23;;;;;;;0.99;77.09;98312.78;5077537;28;20407;-60
2022/03/27 12:13:39;;;;;;;3.75;1.73;;;;;;;1.05;77.99;98333.31;5077940;28;20048;-59